createdAt,value
2018-06-09T00:00:59.681Z,101298.08
2018-06-09T00:03:28.250Z,101294.08
2018-06-09T00:05:56.826Z,101292.77
2018-06-09T00:08:25.380Z,101292.30
2018-06-09T00:10:53.940Z,101293.62
2018-06-09T00:13:22.640Z,101295.42
2018-06-09T00:15:51.223Z,101300.31
2018-06-09T00:18:20.193Z,101295.84
2018-06-09T00:20:48.825Z,101290.09
2018-06-09T00:23:17.457Z,101283.43
2018-06-09T00:25:46.153Z,101287.89
2018-06-09T00:28:14.824Z,101281.66
2018-06-09T00:30:43.506Z,101285.64
2018-06-09T00:33:12.110Z,101285.20
2018-06-09T00:35:40.755Z,101282.55
2018-06-09T00:38:09.311Z,101278.55
2018-06-09T00:40:37.929Z,101279.02
2018-06-09T00:43:06.732Z,101271.47
2018-06-09T00:45:35.401Z,101273.27
2018-06-09T00:48:04.005Z,101267.48
2018-06-09T00:50:33.212Z,101262.62
2018-06-09T00:53:01.989Z,101264.84
2018-06-09T00:55:30.562Z,101262.19
2018-06-09T00:58:00.052Z,101256.42
2018-06-09T01:00:28.625Z,101258.66
2018-06-09T01:02:57.191Z,101252.44
2018-06-09T01:05:25.777Z,101250.24
2018-06-09T01:07:54.479Z,101248.47
2018-06-09T01:10:24.111Z,101252.03
2018-06-09T01:12:53.124Z,101252.06
2018-06-09T01:15:21.692Z,101246.75
2018-06-09T01:17:50.348Z,101248.99
2018-06-09T01:20:19.020Z,101247.26
2018-06-09T01:22:47.586Z,101247.28
2018-06-09T01:25:16.478Z,101245.97
2018-06-09T01:27:45.155Z,101244.22
2018-06-09T01:30:13.825Z,101241.53
2018-06-09T01:32:42.395Z,101248.21
2018-06-09T01:35:11.013Z,101254.45
2018-06-09T01:37:39.744Z,101246.46
2018-06-09T01:40:09.210Z,101242.03
2018-06-09T01:42:43.805Z,101237.15
2018-06-09T01:45:12.365Z,101240.71
2018-06-09T01:47:41.633Z,101234.05
2018-06-09T01:50:10.264Z,101239.39
2018-06-09T01:52:38.831Z,101234.92
2018-06-09T01:55:07.429Z,101237.59
2018-06-09T01:57:36.854Z,101234.94
2018-06-09T02:00:05.729Z,101236.27
2018-06-09T02:02:34.285Z,101242.48
2018-06-09T02:05:02.893Z,101243.81
2018-06-09T02:07:35.993Z,101244.27
2018-06-09T02:10:04.807Z,101242.48
2018-06-09T02:12:33.373Z,101240.71
2018-06-09T02:15:01.921Z,101245.15
2018-06-09T02:17:30.521Z,101235.38
2018-06-09T02:19:59.229Z,101230.95
2018-06-09T02:22:27.907Z,101230.95
2018-06-09T02:24:56.464Z,101233.16
2018-06-09T02:27:25.040Z,101230.50
2018-06-09T02:30:19.017Z,101232.72
2018-06-09T02:32:47.629Z,101234.91
2018-06-09T02:35:16.240Z,101234.02
2018-06-09T02:37:44.859Z,101236.67
2018-06-09T02:40:13.503Z,101249.97
2018-06-09T02:42:42.236Z,101250.41
2018-06-09T02:45:10.812Z,101249.08
2018-06-09T02:47:39.456Z,101254.84
2018-06-09T02:50:08.039Z,101256.61
2018-06-09T02:52:36.607Z,101251.28
2018-06-09T02:55:05.354Z,101248.17
2018-06-09T02:57:33.919Z,101252.59
2018-06-09T03:00:02.588Z,101254.81
2018-06-09T03:02:31.275Z,101257.02
2018-06-09T03:04:59.942Z,101248.16
2018-06-09T03:07:28.514Z,101257.46
2018-06-09T03:09:57.106Z,101252.12
2018-06-09T03:12:39.563Z,101259.21
2018-06-09T03:15:17.169Z,101259.20
2018-06-09T03:17:45.731Z,101269.83
2018-06-09T03:20:14.272Z,101273.81
2018-06-09T03:22:42.886Z,101277.81
2018-06-09T03:25:11.440Z,101273.82
2018-06-09T03:27:40.341Z,101280.03
2018-06-09T03:30:08.940Z,101276.48
2018-06-09T03:32:37.630Z,101276.49
2018-06-09T03:35:06.329Z,101277.84
2018-06-09T03:37:35.013Z,101286.27
2018-06-09T03:40:03.886Z,101282.27
2018-06-09T03:42:32.961Z,101285.81
2018-06-09T03:45:01.512Z,101283.60
2018-06-09T03:47:43.070Z,101287.59
2018-06-09T03:50:12.302Z,101287.16
2018-06-09T03:52:40.942Z,101289.81
2018-06-09T03:55:09.493Z,101294.25
2018-06-09T03:57:38.063Z,101291.16
2018-06-09T04:00:06.721Z,101299.59
2018-06-09T04:02:35.368Z,101296.48
2018-06-09T04:05:04.225Z,101296.49
2018-06-09T04:07:33.976Z,101290.73
2018-06-09T04:10:02.550Z,101291.19
2018-06-09T04:12:31.374Z,101297.41
2018-06-09T04:15:00.047Z,101293.42
2018-06-09T04:17:28.957Z,101293.44
2018-06-09T04:19:57.609Z,101289.02
2018-06-09T04:22:26.271Z,101287.30
2018-06-09T04:24:54.845Z,101290.86
2018-06-09T04:27:23.421Z,101286.87
2018-06-09T04:29:52.217Z,101289.97
2018-06-09T04:32:20.837Z,101291.75
2018-06-09T04:34:49.424Z,101290.86
2018-06-09T04:37:18.012Z,101293.08
2018-06-09T04:39:46.752Z,101284.64
2018-06-09T04:42:15.383Z,101285.08
2018-06-09T04:44:43.982Z,101285.08
2018-06-09T04:47:12.581Z,101285.97
2018-06-09T04:49:41.292Z,101285.53
2018-06-09T04:52:11.071Z,101273.11
2018-06-09T04:54:40.485Z,101270.89
2018-06-09T04:57:09.262Z,101273.55
2018-06-09T04:59:37.936Z,101276.66
2018-06-09T05:02:06.714Z,101277.10
2018-06-09T05:04:35.428Z,101274.44
2018-06-09T05:07:04.008Z,101273.55
2018-06-09T05:09:32.575Z,101268.22
2018-06-09T05:12:01.158Z,101272.66
2018-06-09T05:14:29.804Z,101279.80
2018-06-09T05:16:59.041Z,101275.34
2018-06-09T05:19:27.626Z,101271.80
2018-06-09T05:21:56.302Z,101269.57
2018-06-09T05:24:24.919Z,101274.45
2018-06-09T05:26:53.589Z,101272.67
2018-06-09T05:29:22.276Z,101276.23
2018-06-09T05:31:50.862Z,101270.90
2018-06-09T05:34:19.548Z,101270.00
2018-06-09T05:36:48.238Z,101271.33
2018-06-09T05:39:39.928Z,101277.09
2018-06-09T05:42:08.520Z,101273.95
2018-06-09T05:44:37.110Z,101273.97
2018-06-09T05:47:05.857Z,101280.16
2018-06-09T05:49:34.491Z,101277.02
2018-06-09T05:52:03.925Z,101271.20
2018-06-09T05:54:32.569Z,101276.52
2018-06-09T05:57:01.853Z,101277.41
2018-06-09T05:59:30.672Z,101276.97
2018-06-09T06:01:59.255Z,101279.60
2018-06-09T06:04:27.839Z,101284.03
2018-06-09T06:06:56.651Z,101290.72
2018-06-09T06:09:25.360Z,101292.06
2018-06-09T06:11:54.022Z,101287.58
2018-06-09T06:14:22.609Z,101288.91
2018-06-09T06:16:51.353Z,101292.90
2018-06-09T06:19:34.230Z,101295.99
2018-06-09T06:22:02.882Z,101296.41
2018-06-09T06:24:31.575Z,101302.18
2018-06-09T06:27:00.948Z,101303.06
2018-06-09T06:29:29.549Z,101307.92
2018-06-09T06:31:58.195Z,101312.30
2018-06-09T06:34:26.778Z,101313.20
2018-06-09T06:36:55.452Z,101308.67
2018-06-09T06:39:24.091Z,101314.78
2018-06-09T06:41:52.817Z,101311.13
2018-06-09T06:44:21.383Z,101302.22
2018-06-09T06:47:07.561Z,101302.22
2018-06-09T06:49:49.585Z,101304.92
2018-06-09T06:52:18.158Z,101309.77
2018-06-09T06:54:46.725Z,101296.80
2018-06-09T06:57:15.292Z,101298.56
2018-06-09T06:59:43.990Z,101302.56
2018-06-09T07:02:24.014Z,101295.89
2018-06-09T07:04:52.629Z,101305.25
2018-06-09T07:07:22.503Z,101305.70
2018-06-09T07:10:09.760Z,101307.85
2018-06-09T07:12:38.326Z,101298.02
2018-06-09T07:15:07.033Z,101302.80
2018-06-09T07:17:35.865Z,101305.42
2018-06-09T07:20:04.739Z,101304.05
2018-06-09T07:22:34.177Z,101304.88
2018-06-09T07:25:02.827Z,101312.41
2018-06-09T07:27:31.409Z,101308.42
2018-06-09T07:30:00.096Z,101309.27
2018-06-09T07:32:28.843Z,101300.77
2018-06-09T07:34:57.504Z,101298.02
2018-06-09T07:37:26.064Z,101309.98
2018-06-09T07:39:54.732Z,101307.33
2018-06-09T07:42:23.459Z,101303.25
2018-06-09T07:44:52.093Z,101308.59
2018-06-09T07:47:20.744Z,101298.28
2018-06-09T07:49:49.316Z,101301.41
2018-06-09T07:52:18.588Z,101301.30
2018-06-09T07:54:47.353Z,101288.30
2018-06-09T07:57:15.941Z,101294.83
2018-06-09T07:59:44.548Z,101291.18
2018-06-09T08:02:13.227Z,101297.36
2018-06-09T08:04:41.789Z,101298.33
2018-06-09T08:07:10.768Z,101291.14
2018-06-09T08:09:39.341Z,101295.94
2018-06-09T08:12:08.111Z,101294.13
2018-06-09T08:14:36.796Z,101300.77
2018-06-09T08:17:05.513Z,101302.46
2018-06-09T08:19:34.220Z,101300.58
2018-06-09T08:22:02.959Z,101306.23
2018-06-09T08:24:31.716Z,101294.56
2018-06-09T08:27:00.289Z,101290.56
2018-06-09T08:29:28.864Z,101285.64
2018-06-09T08:31:57.660Z,101292.24
2018-06-09T08:34:28.236Z,101295.26
2018-06-09T08:36:56.870Z,101294.42
2018-06-09T08:39:25.559Z,101285.83
2018-06-09T08:41:54.155Z,101282.52
2018-06-09T08:44:22.822Z,101283.73
2018-06-09T08:46:51.409Z,101291.31
2018-06-09T08:49:20.129Z,101286.02
2018-06-09T08:51:48.696Z,101285.09
2018-06-09T08:54:17.263Z,101279.20
2018-06-09T08:56:46.184Z,101281.77
2018-06-09T08:59:14.844Z,101278.36
2018-06-09T09:01:44.078Z,101282.14
2018-06-09T09:04:12.688Z,101278.88
2018-06-09T09:06:41.317Z,101282.39
2018-06-09T09:09:10.020Z,101273.83
2018-06-09T09:11:38.790Z,101274.69
2018-06-09T09:14:07.509Z,101271.05
2018-06-09T09:16:36.214Z,101271.77
2018-06-09T09:19:04.860Z,101273.13
2018-06-09T09:21:34.054Z,101281.58
2018-06-09T09:24:02.691Z,101273.38
2018-06-09T09:26:31.442Z,101270.14
2018-06-09T09:29:18.876Z,101274.07
2018-06-09T09:31:49.685Z,101270.18
2018-06-09T09:34:18.234Z,101273.19
2018-06-09T09:36:46.970Z,101281.30
2018-06-09T09:39:16.842Z,101279.26
2018-06-09T09:41:45.496Z,101278.70
2018-06-09T09:44:26.836Z,101280.32
2018-06-09T09:46:55.409Z,101276.34
2018-06-09T09:49:23.961Z,101276.23
2018-06-09T09:51:52.603Z,101275.89
2018-06-09T09:54:25.256Z,101273.20
2018-06-09T09:56:55.269Z,101271.66
2018-06-09T09:59:23.821Z,101268.42
2018-06-09T10:01:53.459Z,101268.60
2018-06-09T10:04:25.173Z,101264.14
2018-06-09T10:06:53.755Z,101268.44
2018-06-09T10:09:22.365Z,101266.89
2018-06-09T10:11:55.250Z,101263.56
2018-06-09T10:14:24.603Z,101269.06
2018-06-09T10:16:53.458Z,101267.19
2018-06-09T10:19:22.566Z,101265.42
2018-06-09T10:25:34.877Z,101266.08
2018-06-09T10:28:06.017Z,101262.00
2018-06-09T10:30:34.739Z,101258.92
2018-06-09T10:33:05.362Z,101249.56
2018-06-09T10:35:36.052Z,101248.08
2018-06-09T10:38:05.055Z,101247.72
2018-06-09T10:40:33.660Z,101249.80
2018-06-09T10:43:02.569Z,101250.72
2018-06-09T10:45:31.240Z,101245.48
2018-06-09T10:47:59.937Z,101244.38
2018-06-09T10:50:28.561Z,101245.17
2018-06-09T10:52:57.109Z,101244.59
2018-06-09T10:55:25.793Z,101238.90
2018-06-09T10:57:54.563Z,101240.39
2018-06-09T11:00:23.147Z,101238.27
2018-06-09T11:02:51.943Z,101238.41
2018-06-09T11:05:20.680Z,101240.56
2018-06-09T11:07:50.232Z,101240.10
2018-06-09T11:10:20.551Z,101236.26
2018-06-09T11:12:49.244Z,101230.63
2018-06-09T11:15:18.087Z,101221.32
2018-06-09T11:17:46.812Z,101224.45
2018-06-09T11:20:15.421Z,101221.38
2018-06-09T11:22:45.223Z,101223.80
2018-06-09T11:25:13.913Z,101222.83
2018-06-09T11:27:42.731Z,101219.39
2018-06-09T11:30:11.375Z,101218.20
2018-06-09T11:32:40.031Z,101216.11
2018-06-09T11:35:08.851Z,101211.28
2018-06-09T11:37:37.528Z,101202.73
2018-06-09T11:40:06.375Z,101204.27
2018-06-09T11:42:35.005Z,101196.72
2018-06-09T11:45:03.607Z,101194.42
2018-06-09T11:47:32.337Z,101186.39
2018-06-09T11:50:00.973Z,101186.84
2018-06-09T11:52:29.869Z,101187.47
2018-06-09T11:54:58.491Z,101190.27
2018-06-09T11:57:27.066Z,101182.26
2018-06-09T11:59:55.695Z,101192.91
2018-06-09T12:02:31.852Z,101189.80
2018-06-09T12:05:00.538Z,101182.28
2018-06-09T12:07:29.156Z,101183.59
2018-06-09T12:09:57.837Z,101183.13
2018-06-09T12:12:26.528Z,101173.95
2018-06-09T12:14:55.209Z,101174.22
2018-06-09T12:17:24.025Z,101172.81
2018-06-09T12:19:52.677Z,101169.30
2018-06-09T12:22:21.470Z,101173.19
2018-06-09T12:24:50.122Z,101182.24
2018-06-09T12:27:18.730Z,101177.08
2018-06-09T12:29:47.316Z,101171.03
2018-06-09T12:32:16.028Z,101169.50
2018-06-09T12:34:44.783Z,101167.66
2018-06-09T12:37:13.426Z,101178.83
2018-06-09T12:39:42.773Z,101179.13
2018-06-09T12:42:11.459Z,101165.63
2018-06-09T12:44:40.289Z,101165.65
2018-06-09T12:47:08.851Z,101165.09
2018-06-09T12:49:58.175Z,101165.68
2018-06-09T12:52:26.886Z,101165.24
2018-06-09T12:54:55.466Z,101167.49
2018-06-09T12:57:24.171Z,101169.77
2018-06-09T12:59:52.770Z,101169.19
2018-06-09T13:02:21.316Z,101171.14
2018-06-09T13:04:54.924Z,101171.55
2018-06-09T13:07:23.534Z,101161.55
2018-06-09T13:09:52.232Z,101167.28
2018-06-09T13:12:20.816Z,101160.81
2018-06-09T13:14:49.450Z,101155.91
2018-06-09T13:17:18.209Z,101151.58
2018-06-09T13:19:46.821Z,101153.50
2018-06-09T13:22:16.025Z,101150.64
2018-06-09T13:24:44.616Z,101150.09
2018-06-09T13:27:13.924Z,101148.53
2018-06-09T13:29:42.593Z,101142.22
2018-06-09T13:32:11.294Z,101144.72
2018-06-09T13:34:39.964Z,101133.16
2018-06-09T13:37:08.770Z,101137.59
2018-06-09T13:39:37.428Z,101128.63
2018-06-09T13:42:06.080Z,101133.84
2018-06-09T13:44:34.767Z,101123.37
2018-06-09T13:47:03.511Z,101124.45
2018-06-09T13:49:32.192Z,101114.58
2018-06-09T13:52:00.865Z,101113.90
2018-06-09T13:54:30.290Z,101106.10
2018-06-09T13:56:58.894Z,101113.84
2018-06-09T13:59:27.530Z,101106.09
2018-06-09T14:01:56.133Z,101104.65
2018-06-09T14:04:24.727Z,101103.87
2018-06-09T14:06:53.518Z,101099.44
2018-06-09T14:09:22.117Z,101096.22
2018-06-09T14:11:59.274Z,101098.92
2018-06-09T14:14:27.965Z,101100.62
2018-06-09T14:16:56.635Z,101098.50
2018-06-09T14:19:26.010Z,101093.11
2018-06-09T14:21:54.603Z,101091.89
2018-06-09T14:24:23.457Z,101086.59
2018-06-09T14:26:52.258Z,101086.72
2018-06-09T14:29:20.799Z,101094.30
2018-06-09T14:31:49.382Z,101092.91
2018-06-09T14:34:18.021Z,101086.36
2018-06-09T14:36:46.628Z,101090.61
2018-06-09T14:39:15.209Z,101078.98
2018-06-09T14:41:43.885Z,101087.61
2018-06-09T14:44:12.473Z,101084.34
2018-06-09T14:46:41.153Z,101085.11
2018-06-09T14:49:09.784Z,101095.09
2018-06-09T14:51:38.480Z,101089.38
2018-06-09T14:54:07.331Z,101086.72
2018-06-09T14:56:35.969Z,101090.33
2018-06-09T14:59:04.811Z,101082.96
2018-06-09T15:01:33.592Z,101084.47
2018-06-09T15:04:02.374Z,101084.16
2018-06-09T15:06:30.953Z,101078.97
2018-06-09T15:08:59.568Z,101079.37
2018-06-09T15:11:28.276Z,101078.00
2018-06-09T15:13:56.804Z,101083.30
2018-06-09T15:16:25.482Z,101079.62
2018-06-09T15:19:19.225Z,101079.70
2018-06-09T15:21:47.811Z,101085.98
2018-06-09T15:24:16.485Z,101077.87
2018-06-09T15:26:45.267Z,101070.76
2018-06-09T15:29:13.909Z,101078.28
2018-06-09T15:31:49.953Z,101078.11
2018-06-09T15:34:18.665Z,101077.70
2018-06-09T15:36:47.353Z,101079.06
2018-06-09T15:39:16.756Z,101074.20
2018-06-09T15:41:45.446Z,101070.73
2018-06-09T15:44:14.096Z,101074.20
2018-06-09T15:46:42.780Z,101076.29
2018-06-09T15:49:11.909Z,101075.84
2018-06-09T15:51:40.630Z,101076.81
2018-06-09T15:54:09.206Z,101075.38
2018-06-09T15:56:37.945Z,101072.90
2018-06-09T15:59:10.112Z,101071.95
2018-06-09T16:01:38.699Z,101074.75
2018-06-09T16:04:07.401Z,101068.45
2018-06-09T16:06:36.087Z,101066.20
2018-06-09T16:09:06.466Z,101069.02
2018-06-09T16:11:35.056Z,101069.17
2018-06-09T16:14:03.779Z,101067.69
2018-06-09T16:16:32.461Z,101065.70
2018-06-09T16:19:04.221Z,101061.97
2018-06-09T16:21:32.788Z,101059.27
2018-06-09T16:24:01.429Z,101064.71
2018-06-09T16:26:30.064Z,101054.43
2018-06-09T16:28:58.690Z,101059.36
2018-06-09T16:31:27.289Z,101052.50
2018-06-09T16:33:55.917Z,101055.86
2018-06-09T16:36:41.668Z,101054.51
2018-06-09T16:39:10.292Z,101053.54
2018-06-09T16:41:38.961Z,101056.09
2018-06-09T16:44:07.659Z,101059.12
2018-06-09T16:46:36.491Z,101064.20
2018-06-09T16:49:05.137Z,101066.48
2018-06-09T16:51:33.813Z,101061.27
2018-06-09T16:54:04.076Z,101061.09
2018-06-09T16:57:03.001Z,101052.98
2018-06-09T16:59:31.633Z,101058.10
2018-06-09T17:02:00.383Z,101055.14
2018-06-09T17:04:29.123Z,101059.27
2018-06-09T17:06:57.761Z,101049.50
2018-06-09T17:09:26.345Z,101055.20
2018-06-09T17:11:55.076Z,101059.86
2018-06-09T17:14:23.672Z,101065.27
2018-06-09T17:16:52.424Z,101061.03
2018-06-09T17:19:21.092Z,101064.83
2018-06-09T17:21:49.838Z,101066.19
2018-06-09T17:24:18.384Z,101070.53
2018-06-09T17:26:54.166Z,101073.45
2018-06-09T17:29:22.801Z,101074.47
2018-06-09T17:31:51.412Z,101074.92
2018-06-09T17:34:19.996Z,101069.86
2018-06-09T17:36:48.639Z,101083.20
2018-06-09T17:39:17.957Z,101074.95
2018-06-09T17:41:46.523Z,101074.48
2018-06-09T17:44:15.109Z,101079.20
2018-06-09T17:46:43.712Z,101068.94
2018-06-09T17:49:12.325Z,101070.99
2018-06-09T17:51:40.988Z,101075.31
2018-06-09T17:54:09.676Z,101074.84
2018-06-09T17:56:38.368Z,101074.22
2018-06-09T17:59:07.045Z,101074.41
2018-06-09T18:01:35.628Z,101073.12
2018-06-09T18:04:04.401Z,101070.64
2018-06-09T18:06:33.001Z,101070.05
2018-06-09T18:09:01.588Z,101074.06
2018-06-09T18:11:30.273Z,101065.51
2018-06-09T18:13:59.012Z,101067.70
2018-06-09T18:16:27.624Z,101074.80
2018-06-09T18:18:56.323Z,101076.04
2018-06-09T18:21:25.020Z,101076.86
2018-06-09T18:24:08.542Z,101085.16
2018-06-09T18:26:37.204Z,101087.20
2018-06-09T18:29:05.831Z,101088.37
2018-06-09T18:31:34.505Z,101089.12
2018-06-09T18:34:03.297Z,101091.65
2018-06-09T18:36:31.993Z,101089.12
2018-06-09T18:39:00.697Z,101093.80
2018-06-09T18:41:29.265Z,101090.38
2018-06-09T18:43:57.936Z,101098.22
2018-06-09T18:46:26.521Z,101100.25
2018-06-09T18:48:55.160Z,101097.30
2018-06-09T18:51:23.920Z,101098.47
2018-06-09T18:53:52.572Z,101091.48
2018-06-09T18:56:22.183Z,101093.91
2018-06-09T18:58:51.097Z,101090.91
2018-06-09T19:01:19.723Z,101096.92
2018-06-09T19:03:49.081Z,101092.52
2018-06-09T19:06:25.042Z,101090.03
2018-06-09T19:08:54.785Z,101090.80
2018-06-09T19:11:23.437Z,101098.66
2018-06-09T19:13:52.086Z,101097.52
2018-06-09T19:16:20.692Z,101107.55
2018-06-09T19:18:49.366Z,101105.12
2018-06-09T19:21:21.371Z,101101.37
2018-06-09T19:23:49.972Z,101099.80
2018-06-09T19:26:18.620Z,101094.97
2018-06-09T19:28:48.012Z,101106.73
2018-06-09T19:31:16.869Z,101101.25
2018-06-09T19:33:46.170Z,101106.82
2018-06-09T19:36:15.449Z,101118.14
2018-06-09T19:38:45.273Z,101112.98
2018-06-09T19:41:13.993Z,101113.20
2018-06-09T19:43:43.303Z,101112.59
2018-06-09T19:46:11.899Z,101122.18
2018-06-09T19:48:40.595Z,101126.84
2018-06-09T19:51:09.322Z,101131.22
2018-06-09T19:53:38.195Z,101135.91
2018-06-09T19:56:06.854Z,101130.62
2018-06-09T19:58:35.558Z,101133.52
2018-06-09T20:01:04.980Z,101140.39
2018-06-09T20:03:33.671Z,101146.30
2018-06-09T20:06:03.780Z,101150.06
2018-06-09T20:08:32.398Z,101151.65
2018-06-09T20:11:01.247Z,101150.50
2018-06-09T20:13:30.126Z,101143.97
2018-06-09T20:15:58.992Z,101148.67
2018-06-09T20:18:27.828Z,101145.19
2018-06-09T20:20:56.538Z,101147.94
2018-06-09T20:23:25.388Z,101153.80
2018-06-09T20:25:54.172Z,101153.95
2018-06-09T20:28:23.089Z,101163.48
2018-06-09T20:30:52.067Z,101167.94
2018-06-09T20:33:22.062Z,101167.58
2018-06-09T20:35:50.877Z,101169.02
2018-06-09T20:38:19.845Z,101174.45
2018-06-09T20:40:48.463Z,101176.88
2018-06-09T20:43:17.212Z,101175.25
2018-06-09T20:45:46.107Z,101172.20
2018-06-09T20:48:37.055Z,101169.16
2018-06-09T20:51:05.920Z,101169.75
2018-06-09T20:53:34.610Z,101175.70
2018-06-09T20:56:04.043Z,101171.77
2018-06-09T20:58:39.296Z,101160.70
2018-06-09T21:01:08.360Z,101158.20
2018-06-09T21:03:37.273Z,101155.28
2018-06-09T21:06:06.172Z,101152.66
2018-06-09T21:08:34.911Z,101148.27
2018-06-09T21:11:03.662Z,101153.66
2018-06-09T21:13:32.433Z,101156.34
2018-06-09T21:16:01.214Z,101158.17
2018-06-09T21:18:29.830Z,101155.16
2018-06-09T21:20:58.564Z,101154.42
2018-06-09T21:23:27.926Z,101149.60
2018-06-09T21:25:57.385Z,101159.03
2018-06-09T21:28:27.975Z,101155.98
2018-06-09T21:31:01.890Z,101162.25
2018-06-09T21:33:47.290Z,101169.83
2018-06-09T21:36:20.827Z,101167.26
2018-06-09T21:38:54.831Z,101168.60
2018-06-09T21:41:27.614Z,101167.66
2018-06-09T21:44:01.152Z,101171.63
2018-06-09T21:46:35.248Z,101171.12
2018-06-09T21:49:04.686Z,101171.52
2018-06-09T21:51:33.364Z,101165.70
2018-06-09T21:54:02.780Z,101171.52
2018-06-09T21:56:31.441Z,101171.55
2018-06-09T21:59:00.244Z,101171.55
2018-06-09T22:01:28.932Z,101167.61
2018-06-09T22:03:57.634Z,101168.09
2018-06-09T22:06:26.293Z,101162.30
2018-06-09T22:08:55.039Z,101160.59
2018-06-09T22:11:24.379Z,101156.20
2018-06-09T22:13:53.036Z,101157.12
2018-06-09T22:16:21.654Z,101166.53
2018-06-09T22:18:50.348Z,101165.70
2018-06-09T22:21:19.278Z,101164.01
2018-06-09T22:23:48.069Z,101164.06
2018-06-09T22:26:17.033Z,101169.44
2018-06-09T22:28:45.684Z,101176.16
2018-06-09T22:31:14.384Z,101173.08
2018-06-09T22:33:43.010Z,101174.02
2018-06-09T22:36:11.608Z,101174.48
2018-06-09T22:38:40.340Z,101179.41
2018-06-09T22:41:09.037Z,101177.64
2018-06-09T22:43:37.711Z,101168.75
2018-06-09T22:46:06.428Z,101165.69
2018-06-09T22:48:35.121Z,101165.28
2018-06-09T22:51:03.721Z,101166.20
2018-06-09T22:53:32.549Z,101171.52
2018-06-09T22:56:01.256Z,101168.87
2018-06-09T22:58:30.005Z,101169.80
2018-06-09T23:00:58.925Z,101174.72
2018-06-09T23:03:27.649Z,101168.97
2018-06-09T23:06:13.217Z,101169.85
2018-06-09T23:08:41.887Z,101164.06
2018-06-09T23:11:10.468Z,101165.41
2018-06-09T23:13:39.150Z,101163.63
2018-06-09T23:16:07.747Z,101161.45
2018-06-09T23:18:36.288Z,101156.59
2018-06-09T23:21:12.281Z,101143.30
2018-06-09T23:23:40.949Z,101153.21
2018-06-09T23:26:09.537Z,101149.72
2018-06-09T23:28:38.443Z,101152.45
2018-06-09T23:31:07.086Z,101149.37
2018-06-09T23:33:35.837Z,101155.20
2018-06-09T23:36:04.412Z,101157.05
2018-06-09T23:38:33.084Z,101152.66
2018-06-09T23:41:01.867Z,101145.14
2018-06-09T23:43:30.557Z,101141.20
2018-06-09T23:45:59.188Z,101140.80
2018-06-09T23:48:27.823Z,101145.28
2018-06-09T23:50:56.397Z,101140.45
2018-06-09T23:53:25.251Z,101141.84
2018-06-09T23:56:04.896Z,101145.46
2018-06-09T23:58:33.452Z,101153.08
